createdAt,value
2022-10-29T00:03:35.684Z,984.03
2022-10-29T00:10:05.323Z,984.05
2022-10-29T00:16:32.439Z,984.08
2022-10-29T00:23:00.074Z,984.18
2022-10-29T00:29:25.333Z,984.23
2022-10-29T00:35:56.332Z,984.18
2022-10-29T00:42:31.091Z,984.18
2022-10-29T00:49:28.046Z,984.11
2022-10-29T00:56:16.637Z,984.11
2022-10-29T01:02:56.286Z,984
2022-10-29T01:09:23.276Z,983.94
2022-10-29T01:16:36.504Z,983.89
2022-10-29T01:23:39.613Z,983.84
2022-10-29T01:30:42.517Z,983.74
2022-10-29T01:37:47.454Z,983.62
2022-10-29T01:44:55.761Z,983.57
2022-10-29T01:51:54.390Z,983.75
2022-10-29T01:58:26.977Z,983.79
2022-10-29T02:05:11.602Z,983.81
2022-10-29T02:12:13.407Z,983.81
2022-10-29T02:19:17.411Z,983.73
2022-10-29T02:25:49.697Z,983.69
2022-10-29T02:32:16.248Z,983.7
2022-10-29T02:38:43.411Z,983.63
2022-10-29T02:45:11.776Z,983.51
2022-10-29T02:51:40.383Z,983.48
2022-10-29T02:58:05.433Z,983.49
2022-10-29T03:04:31.745Z,983.43
2022-10-29T03:11:01.386Z,983.35
2022-10-29T03:17:40.609Z,983.41
2022-10-29T03:24:06.694Z,983.31
2022-10-29T03:30:34.162Z,983.25
2022-10-29T03:36:55.666Z,983.19
2022-10-29T03:43:22.097Z,983.22
2022-10-29T03:49:53.817Z,983.2
2022-10-29T03:56:24.413Z,983.19
2022-10-29T04:02:57.749Z,983.19
2022-10-29T04:09:26.776Z,983.22
2022-10-29T04:15:59.690Z,983.2
2022-10-29T04:29:12.969Z,983.11
2022-10-29T04:35:37.820Z,983.15
2022-10-29T04:42:02.389Z,983.14
2022-10-29T04:48:39.873Z,983.08
2022-10-29T04:55:12.053Z,983.18
2022-10-29T05:01:41.520Z,983.12
2022-10-29T05:08:11.376Z,983.06
2022-10-29T05:14:41.974Z,982.94
2022-10-29T05:21:11.403Z,983.01
2022-10-29T05:27:36.921Z,982.95
2022-10-29T05:34:03.553Z,982.94
2022-10-29T05:40:28.374Z,982.99
2022-10-29T05:46:59.089Z,983
2022-10-29T05:53:32.928Z,983.02
2022-10-29T06:00:09.487Z,983.01
2022-10-29T06:06:35.698Z,983.08
2022-10-29T06:13:03.572Z,983.15
2022-10-29T06:26:09.845Z,983.11
2022-10-29T06:32:43.463Z,983.12
2022-10-29T06:39:12.476Z,983.09
2022-10-29T06:45:51.846Z,983.14
2022-10-29T06:52:16.119Z,983.18
2022-10-29T06:58:49.026Z,983.17
2022-10-29T07:05:17.537Z,983.25
2022-10-29T07:11:50.635Z,983.19
2022-10-29T07:18:24.174Z,983.27
2022-10-29T07:24:53.764Z,983.26
2022-10-29T07:31:37.636Z,983.28
2022-10-29T07:38:12.303Z,983.25
2022-10-29T07:44:48.461Z,983.34
2022-10-29T07:51:15.459Z,983.38
2022-10-29T07:57:45.590Z,983.4
2022-10-29T08:04:10.110Z,983.39
2022-10-29T08:10:38.317Z,983.39
2022-10-29T08:17:03.491Z,983.37
2022-10-29T08:23:37.560Z,983.4
2022-10-29T08:30:07.810Z,983.35
2022-10-29T08:36:36.441Z,983.33
2022-10-29T08:43:21.623Z,983.27
2022-10-29T08:50:33.960Z,983.29
2022-10-29T08:57:29.085Z,983.32
2022-10-29T09:04:23.913Z,983.33
2022-10-29T09:11:26.474Z,983.29
2022-10-29T09:18:35.550Z,983.27
2022-10-29T09:25:32.509Z,983.28
2022-10-29T09:32:40.796Z,983.19
2022-10-29T09:39:42.839Z,983.12
2022-10-29T09:46:48.922Z,983.14
2022-10-29T09:53:49.620Z,983.05
2022-10-29T10:00:36.820Z,983
2022-10-29T10:07:35.767Z,983.02
2022-10-29T10:14:28.477Z,982.97
2022-10-29T10:21:14.089Z,982.89
2022-10-29T10:28:08.482Z,982.71
2022-10-29T10:34:57.285Z,982.79
2022-10-29T10:41:43.708Z,982.74
2022-10-29T10:48:24.146Z,982.74
2022-10-29T10:55:16.444Z,982.64
2022-10-29T11:02:25.822Z,982.55
2022-10-29T11:09:15.711Z,982.5
2022-10-29T11:16:14.418Z,982.25
2022-10-29T11:23:27.044Z,982.33
2022-10-29T11:30:51.886Z,982.13
2022-10-29T11:37:53.308Z,982.19
2022-10-29T11:44:35.936Z,982.16
2022-10-29T11:51:43.646Z,982.05
2022-10-29T11:59:02.076Z,981.99
2022-10-29T12:06:18.585Z,981.99
2022-10-29T12:13:19.806Z,981.98
2022-10-29T12:20:16.730Z,981.83
2022-10-29T12:27:20.718Z,981.74
2022-10-29T12:34:20.878Z,981.75
2022-10-29T12:41:26.958Z,981.65
2022-10-29T12:48:26.976Z,981.69
2022-10-29T12:55:34.717Z,981.61
2022-10-29T13:02:15.632Z,981.57
2022-10-29T13:09:09.690Z,981.47
2022-10-29T13:16:06.770Z,981.44
2022-10-29T13:22:58.628Z,981.4
2022-10-29T13:29:32.979Z,981.38
2022-10-29T13:36:30.349Z,981.39
2022-10-29T13:43:30.667Z,981.33
2022-10-29T13:50:19.997Z,981.27
2022-10-29T13:57:07.331Z,981.25
2022-10-29T14:04:06.779Z,981.26
2022-10-29T14:11:15.740Z,981.18
2022-10-29T14:18:01.725Z,981.13
2022-10-29T14:24:46.128Z,981.14
2022-10-29T14:31:32.049Z,981.16
2022-10-29T14:38:19.571Z,981.1
2022-10-29T14:45:16.082Z,981.11
2022-10-29T14:52:17.106Z,981.11
2022-10-29T14:59:11.059Z,981.06
2022-10-29T15:05:59.204Z,981.09
2022-10-29T15:12:50.117Z,980.99
2022-10-29T15:19:30.683Z,980.99
2022-10-29T15:26:27.169Z,981.02
2022-10-29T15:33:13.760Z,981
2022-10-29T15:40:04.001Z,980.96
2022-10-29T15:46:54.799Z,980.95
2022-10-29T15:53:35.985Z,980.94
2022-10-29T16:00:06.285Z,980.91
2022-10-29T16:06:38.998Z,980.86
2022-10-29T16:13:15.287Z,980.79
2022-10-29T16:19:49.790Z,980.81
2022-10-29T16:26:22.591Z,980.76
2022-10-29T16:33:04.717Z,980.79
2022-10-29T16:39:42.852Z,980.74
2022-10-29T16:46:16.196Z,980.71
2022-10-29T16:52:46.208Z,980.69
2022-10-29T16:59:05.798Z,980.7
2022-10-29T17:05:34.809Z,980.76
2022-10-29T17:12:04.630Z,980.78
2022-10-29T17:18:26.331Z,980.83
2022-10-29T17:24:52.131Z,980.92
2022-10-29T17:31:16.959Z,980.91
2022-10-29T17:37:51.681Z,980.88
2022-10-29T17:44:13.842Z,980.84
2022-10-29T17:50:48.147Z,980.88
2022-10-29T17:57:22.758Z,980.97
2022-10-29T18:03:53.071Z,980.97
2022-10-29T18:10:22.158Z,980.99
2022-10-29T18:16:55.236Z,981.05
2022-10-29T18:23:22.967Z,981.08
2022-10-29T18:29:58.759Z,981.05
2022-10-29T18:36:35.967Z,981.09
2022-10-29T18:42:57.887Z,981.1
2022-10-29T18:49:27.122Z,981.12
2022-10-29T18:56:04.848Z,981.14
2022-10-29T19:02:47.979Z,981.14
2022-10-29T19:09:14.814Z,981.14
2022-10-29T19:15:44.302Z,981.15
2022-10-29T19:22:14.820Z,981.13
2022-10-29T19:28:50.636Z,981.09
2022-10-29T19:35:22.621Z,981.12
2022-10-29T19:41:44.380Z,981.12
2022-10-29T19:48:12.153Z,981.14
2022-10-29T19:54:48.920Z,981.16
2022-10-29T20:01:22.775Z,981.14
2022-10-29T20:08:02.312Z,981.11
2022-10-29T20:14:29.928Z,981.08
2022-10-29T20:21:02.085Z,981.08
2022-10-29T20:27:37.257Z,981.05
2022-10-29T20:34:05.494Z,981.09
2022-10-29T20:40:30.499Z,980.98
2022-10-29T20:47:03.616Z,980.96
2022-10-29T20:53:26.262Z,980.98
2022-10-29T20:59:51.432Z,980.97
2022-10-29T21:06:24.913Z,980.96
2022-10-29T21:12:51.833Z,980.97
2022-10-29T21:19:21.147Z,981
2022-10-29T21:25:43.041Z,981.04
2022-10-29T21:32:17.550Z,981.05
2022-10-29T21:38:42.451Z,981
2022-10-29T21:45:07.825Z,981.06
2022-10-29T21:51:43.428Z,981.07
2022-10-29T21:58:08.047Z,981.05
2022-10-29T22:04:35.000Z,981.08
2022-10-29T22:10:55.651Z,981.12
2022-10-29T22:17:18.363Z,981.14
2022-10-29T22:23:48.166Z,981.12
2022-10-29T22:30:22.988Z,981.09
2022-10-29T22:36:54.004Z,981.12
2022-10-29T22:43:25.401Z,981
2022-10-29T22:49:48.221Z,980.98
2022-10-29T22:56:17.218Z,980.96
2022-10-29T23:02:51.804Z,980.95
2022-10-29T23:09:25.998Z,980.9
2022-10-29T23:15:52.179Z,980.86
2022-10-29T23:22:28.381Z,980.8
2022-10-29T23:28:53.998Z,980.85
2022-10-29T23:35:24.117Z,980.87
2022-10-29T23:41:52.908Z,980.84
2022-10-29T23:48:14.945Z,980.75
2022-10-29T23:54:35.724Z,980.72
